sensor_id;sensor_type;location;lat;lon;timestamp;P1;durP1;ratioP1;P2;durP2;ratioP2
28353;SDS011;15603;50.878;8.036;2023-04-24T00:02:00;1.05;;;0.20;;
28353;SDS011;15603;50.878;8.036;2023-04-24T00:04:28;1.77;;;0.30;;
28353;SDS011;15603;50.878;8.036;2023-04-24T00:06:55;1.35;;;0.25;;
28353;SDS011;15603;50.878;8.036;2023-04-24T00:09:23;0.10;;;0.10;;
28353;SDS011;15603;50.878;8.036;2023-04-24T00:11:50;1.00;;;0.30;;
28353;SDS011;15603;50.878;8.036;2023-04-24T00:14:18;0.30;;;0.10;;
28353;SDS011;15603;50.878;8.036;2023-04-24T00:16:45;3.53;;;0.28;;
28353;SDS011;15603;50.878;8.036;2023-04-24T00:19:13;0.73;;;0.28;;
28353;SDS011;15603;50.878;8.036;2023-04-24T00:21:40;1.23;;;0.22;;
28353;SDS011;15603;50.878;8.036;2023-04-24T00:24:08;0.10;;;0.10;;
28353;SDS011;15603;50.878;8.036;2023-04-24T00:26:38;0.75;;;0.28;;
28353;SDS011;15603;50.878;8.036;2023-04-24T00:29:05;0.77;;;0.20;;
28353;SDS011;15603;50.878;8.036;2023-04-24T00:31:32;0.10;;;0.10;;
28353;SDS011;15603;50.878;8.036;2023-04-24T00:34:02;0.45;;;0.10;;
28353;SDS011;15603;50.878;8.036;2023-04-24T00:36:30;1.23;;;0.40;;
28353;SDS011;15603;50.878;8.036;2023-04-24T00:38:57;1.08;;;0.10;;
28353;SDS011;15603;50.878;8.036;2023-04-24T00:41:24;0.38;;;0.20;;
28353;SDS011;15603;50.878;8.036;2023-04-24T00:43:52;1.65;;;0.10;;
28353;SDS011;15603;50.878;8.036;2023-04-24T00:46:19;1.85;;;0.28;;
28353;SDS011;15603;50.878;8.036;2023-04-24T00:48:48;0.63;;;0.30;;
28353;SDS011;15603;50.878;8.036;2023-04-24T00:51:15;1.95;;;0.22;;
28353;SDS011;15603;50.878;8.036;2023-04-24T00:53:42;2.05;;;0.17;;
28353;SDS011;15603;50.878;8.036;2023-04-24T00:56:09;0.17;;;0.10;;
28353;SDS011;15603;50.878;8.036;2023-04-24T00:58:36;0.10;;;0.10;;
28353;SDS011;15603;50.878;8.036;2023-04-24T01:01:04;0.52;;;0.13;;
28353;SDS011;15603;50.878;8.036;2023-04-24T01:03:34;2.50;;;0.25;;
28353;SDS011;15603;50.878;8.036;2023-04-24T01:06:04;0.32;;;0.25;;
28353;SDS011;15603;50.878;8.036;2023-04-24T01:08:32;1.10;;;0.20;;
28353;SDS011;15603;50.878;8.036;2023-04-24T01:11:03;0.68;;;0.13;;
28353;SDS011;15603;50.878;8.036;2023-04-24T01:13:31;1.35;;;0.20;;
28353;SDS011;15603;50.878;8.036;2023-04-24T01:16:00;0.73;;;0.15;;
28353;SDS011;15603;50.878;8.036;2023-04-24T01:18:27;1.55;;;0.20;;
28353;SDS011;15603;50.878;8.036;2023-04-24T01:20:58;0.98;;;0.10;;
28353;SDS011;15603;50.878;8.036;2023-04-24T01:23:26;0.40;;;0.15;;
28353;SDS011;15603;50.878;8.036;2023-04-24T01:25:53;3.00;;;0.40;;
28353;SDS011;15603;50.878;8.036;2023-04-24T01:28:21;2.95;;;0.38;;
28353;SDS011;15603;50.878;8.036;2023-04-24T01:30:49;0.95;;;0.22;;
28353;SDS011;15603;50.878;8.036;2023-04-24T01:33:16;1.75;;;0.30;;
28353;SDS011;15603;50.878;8.036;2023-04-24T01:35:44;0.10;;;0.10;;
28353;SDS011;15603;50.878;8.036;2023-04-24T01:38:11;2.80;;;1.05;;
28353;SDS011;15603;50.878;8.036;2023-04-24T01:40:38;0.20;;;0.00;;
28353;SDS011;15603;50.878;8.036;2023-04-24T01:43:06;0.20;;;0.10;;
28353;SDS011;15603;50.878;8.036;2023-04-24T01:45:33;2.45;;;0.20;;
28353;SDS011;15603;50.878;8.036;2023-04-24T01:48:03;7.00;;;0.28;;
28353;SDS011;15603;50.878;8.036;2023-04-24T01:50:31;0.32;;;0.13;;
28353;SDS011;15603;50.878;8.036;2023-04-24T01:52:58;0.43;;;0.28;;
28353;SDS011;15603;50.878;8.036;2023-04-24T01:55:25;1.23;;;0.15;;
28353;SDS011;15603;50.878;8.036;2023-04-24T01:57:52;0.10;;;0.10;;
28353;SDS011;15603;50.878;8.036;2023-04-24T02:00:22;2.60;;;0.20;;
28353;SDS011;15603;50.878;8.036;2023-04-24T02:02:52;0.25;;;0.20;;
28353;SDS011;15603;50.878;8.036;2023-04-24T02:05:20;0.47;;;0.10;;
28353;SDS011;15603;50.878;8.036;2023-04-24T02:07:47;0.20;;;0.20;;
28353;SDS011;15603;50.878;8.036;2023-04-24T02:10:14;2.00;;;0.25;;
28353;SDS011;15603;50.878;8.036;2023-04-24T02:12:42;0.20;;;0.20;;
28353;SDS011;15603;50.878;8.036;2023-04-24T02:15:09;0.82;;;0.30;;
28353;SDS011;15603;50.878;8.036;2023-04-24T02:17:37;2.63;;;0.20;;
28353;SDS011;15603;50.878;8.036;2023-04-24T02:20:05;3.53;;;0.20;;
28353;SDS011;15603;50.878;8.036;2023-04-24T02:22:33;0.10;;;0.10;;
28353;SDS011;15603;50.878;8.036;2023-04-24T02:25:01;3.20;;;0.30;;
28353;SDS011;15603;50.878;8.036;2023-04-24T02:27:29;0.40;;;0.20;;
28353;SDS011;15603;50.878;8.036;2023-04-24T02:29:56;0.20;;;0.20;;
28353;SDS011;15603;50.878;8.036;2023-04-24T02:32:23;1.55;;;0.30;;
28353;SDS011;15603;50.878;8.036;2023-04-24T02:34:50;0.43;;;0.20;;
28353;SDS011;15603;50.878;8.036;2023-04-24T02:37:17;1.65;;;0.40;;
28353;SDS011;15603;50.878;8.036;2023-04-24T02:39:44;0.88;;;0.30;;
28353;SDS011;15603;50.878;8.036;2023-04-24T02:42:11;1.13;;;0.30;;
28353;SDS011;15603;50.878;8.036;2023-04-24T02:44:38;3.90;;;0.70;;
28353;SDS011;15603;50.878;8.036;2023-04-24T02:47:05;2.47;;;0.20;;
28353;SDS011;15603;50.878;8.036;2023-04-24T02:49:34;1.27;;;0.25;;
28353;SDS011;15603;50.878;8.036;2023-04-24T02:52:01;0.52;;;0.32;;
28353;SDS011;15603;50.878;8.036;2023-04-24T02:54:28;4.97;;;0.32;;
28353;SDS011;15603;50.878;8.036;2023-04-24T02:56:55;1.15;;;0.50;;
28353;SDS011;15603;50.878;8.036;2023-04-24T02:59:23;3.78;;;0.30;;
28353;SDS011;15603;50.878;8.036;2023-04-24T03:01:50;0.90;;;0.40;;
28353;SDS011;15603;50.878;8.036;2023-04-24T03:04:17;1.83;;;0.43;;
28353;SDS011;15603;50.878;8.036;2023-04-24T03:06:47;0.32;;;0.20;;
28353;SDS011;15603;50.878;8.036;2023-04-24T03:09:15;4.57;;;0.63;;
28353;SDS011;15603;50.878;8.036;2023-04-24T03:11:42;4.80;;;0.50;;
28353;SDS011;15603;50.878;8.036;2023-04-24T03:14:09;5.95;;;2.80;;
28353;SDS011;15603;50.878;8.036;2023-04-24T03:16:37;0.93;;;0.60;;
28353;SDS011;15603;50.878;8.036;2023-04-24T03:19:06;1.30;;;0.65;;
28353;SDS011;15603;50.878;8.036;2023-04-24T03:21:39;2.65;;;0.90;;
28353;SDS011;15603;50.878;8.036;2023-04-24T03:24:08;1.17;;;0.85;;
28353;SDS011;15603;50.878;8.036;2023-04-24T03:26:36;0.60;;;0.60;;
28353;SDS011;15603;50.878;8.036;2023-04-24T03:29:16;2.35;;;1.10;;
28353;SDS011;15603;50.878;8.036;2023-04-24T03:31:44;6.07;;;1.40;;
28353;SDS011;15603;50.878;8.036;2023-04-24T03:34:11;4.50;;;1.38;;
28353;SDS011;15603;50.878;8.036;2023-04-24T03:36:38;4.60;;;1.63;;
28353;SDS011;15603;50.878;8.036;2023-04-24T03:39:07;3.47;;;1.98;;
28353;SDS011;15603;50.878;8.036;2023-04-24T03:41:36;4.50;;;1.58;;
28353;SDS011;15603;50.878;8.036;2023-04-24T03:44:09;2.95;;;1.33;;
28353;SDS011;15603;50.878;8.036;2023-04-24T03:46:36;3.55;;;1.55;;
28353;SDS011;15603;50.878;8.036;2023-04-24T03:49:04;7.63;;;2.03;;
28353;SDS011;15603;50.878;8.036;2023-04-24T03:51:35;8.70;;;1.70;;
28353;SDS011;15603;50.878;8.036;2023-04-24T03:54:10;3.22;;;2.08;;
28353;SDS011;15603;50.878;8.036;2023-04-24T03:56:39;2.40;;;1.65;;
28353;SDS011;15603;50.878;8.036;2023-04-24T03:59:06;6.82;;;1.80;;
28353;SDS011;15603;50.878;8.036;2023-04-24T04:01:36;2.65;;;1.90;;
28353;SDS011;15603;50.878;8.036;2023-04-24T04:04:13;3.85;;;1.80;;
28353;SDS011;15603;50.878;8.036;2023-04-24T04:06:42;5.88;;;2.33;;
28353;SDS011;15603;50.878;8.036;2023-04-24T04:09:10;5.93;;;2.55;;
28353;SDS011;15603;50.878;8.036;2023-04-24T04:11:37;3.67;;;2.20;;
28353;SDS011;15603;50.878;8.036;2023-04-24T04:14:05;7.15;;;2.13;;
28353;SDS011;15603;50.878;8.036;2023-04-24T04:16:34;6.32;;;3.58;;
28353;SDS011;15603;50.878;8.036;2023-04-24T04:19:04;4.88;;;2.22;;
28353;SDS011;15603;50.878;8.036;2023-04-24T04:21:32;7.13;;;2.28;;
28353;SDS011;15603;50.878;8.036;2023-04-24T04:24:10;3.20;;;2.10;;
28353;SDS011;15603;50.878;8.036;2023-04-24T04:26:41;5.43;;;2.83;;
28353;SDS011;15603;50.878;8.036;2023-04-24T04:29:22;8.60;;;2.67;;
28353;SDS011;15603;50.878;8.036;2023-04-24T04:31:50;6.15;;;2.80;;
28353;SDS011;15603;50.878;8.036;2023-04-24T04:34:17;6.43;;;2.92;;
28353;SDS011;15603;50.878;8.036;2023-04-24T04:36:45;3.63;;;2.28;;
28353;SDS011;15603;50.878;8.036;2023-04-24T04:39:36;6.57;;;2.80;;
28353;SDS011;15603;50.878;8.036;2023-04-24T04:42:09;6.43;;;2.83;;
28353;SDS011;15603;50.878;8.036;2023-04-24T04:44:41;5.13;;;3.00;;
28353;SDS011;15603;50.878;8.036;2023-04-24T04:47:14;4.00;;;2.35;;
28353;SDS011;15603;50.878;8.036;2023-04-24T04:49:41;4.35;;;2.53;;
28353;SDS011;15603;50.878;8.036;2023-04-24T04:52:17;5.53;;;3.00;;
28353;SDS011;15603;50.878;8.036;2023-04-24T04:54:48;4.57;;;2.45;;
28353;SDS011;15603;50.878;8.036;2023-04-24T04:57:15;4.15;;;2.88;;
28353;SDS011;15603;50.878;8.036;2023-04-24T04:59:43;8.63;;;2.83;;
28353;SDS011;15603;50.878;8.036;2023-04-24T05:02:18;6.38;;;2.80;;
28353;SDS011;15603;50.878;8.036;2023-04-24T05:04:46;4.82;;;2.40;;
28353;SDS011;15603;50.878;8.036;2023-04-24T05:07:14;8.23;;;2.30;;
28353;SDS011;15603;50.878;8.036;2023-04-24T05:09:46;3.47;;;2.22;;
28353;SDS011;15603;50.878;8.036;2023-04-24T05:12:13;5.90;;;2.10;;
28353;SDS011;15603;50.878;8.036;2023-04-24T05:14:48;4.60;;;2.42;;
28353;SDS011;15603;50.878;8.036;2023-04-24T05:17:15;4.53;;;2.65;;
28353;SDS011;15603;50.878;8.036;2023-04-24T05:19:44;5.65;;;2.72;;
28353;SDS011;15603;50.878;8.036;2023-04-24T05:22:13;5.22;;;3.13;;
28353;SDS011;15603;50.878;8.036;2023-04-24T05:24:47;4.78;;;2.97;;
28353;SDS011;15603;50.878;8.036;2023-04-24T05:27:33;9.57;;;2.67;;
28353;SDS011;15603;50.878;8.036;2023-04-24T05:30:03;8.95;;;2.80;;
28353;SDS011;15603;50.878;8.036;2023-04-24T05:32:31;8.10;;;2.65;;
28353;SDS011;15603;50.878;8.036;2023-04-24T05:34:58;8.73;;;3.10;;
28353;SDS011;15603;50.878;8.036;2023-04-24T05:37:25;4.22;;;2.75;;
28353;SDS011;15603;50.878;8.036;2023-04-24T05:39:52;7.40;;;3.25;;
28353;SDS011;15603;50.878;8.036;2023-04-24T05:42:19;7.15;;;2.95;;
28353;SDS011;15603;50.878;8.036;2023-04-24T05:44:47;12.65;;;4.57;;
28353;SDS011;15603;50.878;8.036;2023-04-24T05:47:14;7.10;;;2.97;;
28353;SDS011;15603;50.878;8.036;2023-04-24T05:49:41;7.90;;;3.90;;
28353;SDS011;15603;50.878;8.036;2023-04-24T05:52:09;4.18;;;2.85;;
28353;SDS011;15603;50.878;8.036;2023-04-24T05:54:37;9.13;;;3.20;;
28353;SDS011;15603;50.878;8.036;2023-04-24T05:57:05;4.78;;;2.30;;
28353;SDS011;15603;50.878;8.036;2023-04-24T05:59:48;6.63;;;3.03;;
28353;SDS011;15603;50.878;8.036;2023-04-24T06:02:16;4.90;;;2.63;;
28353;SDS011;15603;50.878;8.036;2023-04-24T06:04:44;8.35;;;2.60;;
28353;SDS011;15603;50.878;8.036;2023-04-24T06:07:12;4.18;;;2.38;;
28353;SDS011;15603;50.878;8.036;2023-04-24T06:09:41;3.38;;;2.38;;
28353;SDS011;15603;50.878;8.036;2023-04-24T06:12:09;7.00;;;3.08;;
28353;SDS011;15603;50.878;8.036;2023-04-24T06:14:50;8.95;;;3.08;;
28353;SDS011;15603;50.878;8.036;2023-04-24T06:17:21;4.65;;;2.97;;
28353;SDS011;15603;50.878;8.036;2023-04-24T06:19:49;18.15;;;3.85;;
28353;SDS011;15603;50.878;8.036;2023-04-24T06:22:17;5.78;;;3.20;;
28353;SDS011;15603;50.878;8.036;2023-04-24T06:24:44;5.50;;;2.42;;
28353;SDS011;15603;50.878;8.036;2023-04-24T06:27:11;8.70;;;3.38;;
28353;SDS011;15603;50.878;8.036;2023-04-24T06:29:41;5.20;;;2.88;;
28353;SDS011;15603;50.878;8.036;2023-04-24T06:32:08;4.13;;;2.50;;
28353;SDS011;15603;50.878;8.036;2023-04-24T06:34:36;10.10;;;2.90;;
28353;SDS011;15603;50.878;8.036;2023-04-24T06:37:03;5.45;;;3.08;;
28353;SDS011;15603;50.878;8.036;2023-04-24T06:39:30;5.03;;;2.97;;
28353;SDS011;15603;50.878;8.036;2023-04-24T06:41:58;5.88;;;2.85;;
28353;SDS011;15603;50.878;8.036;2023-04-24T06:44:25;4.25;;;2.70;;
28353;SDS011;15603;50.878;8.036;2023-04-24T06:46:52;8.07;;;3.50;;
28353;SDS011;15603;50.878;8.036;2023-04-24T06:49:19;6.18;;;3.10;;
28353;SDS011;15603;50.878;8.036;2023-04-24T06:51:46;5.93;;;2.70;;
28353;SDS011;15603;50.878;8.036;2023-04-24T06:54:13;10.70;;;3.17;;
28353;SDS011;15603;50.878;8.036;2023-04-24T06:56:40;7.10;;;3.05;;
28353;SDS011;15603;50.878;8.036;2023-04-24T06:59:08;6.82;;;3.60;;
28353;SDS011;15603;50.878;8.036;2023-04-24T07:01:35;12.27;;;3.30;;
28353;SDS011;15603;50.878;8.036;2023-04-24T07:04:02;7.20;;;3.10;;
28353;SDS011;15603;50.878;8.036;2023-04-24T07:06:29;6.78;;;3.17;;
28353;SDS011;15603;50.878;8.036;2023-04-24T07:08:58;8.77;;;3.10;;
28353;SDS011;15603;50.878;8.036;2023-04-24T07:11:26;9.82;;;3.60;;
28353;SDS011;15603;50.878;8.036;2023-04-24T07:13:56;7.03;;;3.50;;
28353;SDS011;15603;50.878;8.036;2023-04-24T07:16:23;7.95;;;3.80;;
28353;SDS011;15603;50.878;8.036;2023-04-24T07:18:50;7.95;;;3.30;;
28353;SDS011;15603;50.878;8.036;2023-04-24T07:21:17;8.80;;;3.35;;
28353;SDS011;15603;50.878;8.036;2023-04-24T07:23:44;10.63;;;3.92;;
28353;SDS011;15603;50.878;8.036;2023-04-24T07:26:11;14.27;;;4.05;;
28353;SDS011;15603;50.878;8.036;2023-04-24T07:28:38;6.72;;;3.85;;
28353;SDS011;15603;50.878;8.036;2023-04-24T07:31:08;8.65;;;3.50;;
28353;SDS011;15603;50.878;8.036;2023-04-24T07:33:37;9.57;;;4.18;;
28353;SDS011;15603;50.878;8.036;2023-04-24T07:36:05;7.25;;;2.95;;
28353;SDS011;15603;50.878;8.036;2023-04-24T07:38:32;15.45;;;4.05;;
28353;SDS011;15603;50.878;8.036;2023-04-24T07:40:59;7.55;;;3.80;;
28353;SDS011;15603;50.878;8.036;2023-04-24T07:43:26;7.03;;;3.42;;
28353;SDS011;15603;50.878;8.036;2023-04-24T07:45:53;5.85;;;3.42;;
28353;SDS011;15603;50.878;8.036;2023-04-24T07:48:20;10.13;;;3.60;;
28353;SDS011;15603;50.878;8.036;2023-04-24T07:50:49;6.60;;;3.58;;
28353;SDS011;15603;50.878;8.036;2023-04-24T07:53:16;6.10;;;2.90;;
28353;SDS011;15603;50.878;8.036;2023-04-24T07:55:43;5.38;;;3.55;;
28353;SDS011;15603;50.878;8.036;2023-04-24T07:58:10;7.22;;;3.65;;
28353;SDS011;15603;50.878;8.036;2023-04-24T08:00:37;8.60;;;3.60;;
28353;SDS011;15603;50.878;8.036;2023-04-24T08:03:04;5.32;;;3.25;;
28353;SDS011;15603;50.878;8.036;2023-04-24T08:05:31;5.38;;;3.25;;
28353;SDS011;15603;50.878;8.036;2023-04-24T08:07:59;13.48;;;3.50;;
28353;SDS011;15603;50.878;8.036;2023-04-24T08:10:26;9.68;;;4.05;;
28353;SDS011;15603;50.878;8.036;2023-04-24T08:12:53;11.32;;;4.68;;
28353;SDS011;15603;50.878;8.036;2023-04-24T08:15:20;8.50;;;3.60;;
28353;SDS011;15603;50.878;8.036;2023-04-24T08:17:47;6.07;;;3.58;;
28353;SDS011;15603;50.878;8.036;2023-04-24T08:20:14;10.13;;;3.50;;
28353;SDS011;15603;50.878;8.036;2023-04-24T08:22:41;5.78;;;3.70;;
28353;SDS011;15603;50.878;8.036;2023-04-24T08:25:10;5.47;;;3.35;;
28353;SDS011;15603;50.878;8.036;2023-04-24T08:27:37;7.50;;;3.90;;
28353;SDS011;15603;50.878;8.036;2023-04-24T08:30:05;5.68;;;3.88;;
28353;SDS011;15603;50.878;8.036;2023-04-24T08:32:33;5.80;;;3.55;;
28353;SDS011;15603;50.878;8.036;2023-04-24T08:35:00;7.65;;;3.63;;
28353;SDS011;15603;50.878;8.036;2023-04-24T08:37:27;5.53;;;3.30;;
28353;SDS011;15603;50.878;8.036;2023-04-24T08:39:54;7.38;;;4.20;;
28353;SDS011;15603;50.878;8.036;2023-04-24T08:42:22;8.85;;;4.28;;
28353;SDS011;15603;50.878;8.036;2023-04-24T08:44:49;5.53;;;3.60;;
28353;SDS011;15603;50.878;8.036;2023-04-24T08:47:16;7.72;;;3.67;;
28353;SDS011;15603;50.878;8.036;2023-04-24T08:49:44;9.57;;;3.75;;
28353;SDS011;15603;50.878;8.036;2023-04-24T08:52:15;10.73;;;3.92;;
28353;SDS011;15603;50.878;8.036;2023-04-24T08:54:42;5.78;;;3.13;;
28353;SDS011;15603;50.878;8.036;2023-04-24T08:57:12;5.75;;;3.47;;
28353;SDS011;15603;50.878;8.036;2023-04-24T08:59:41;8.82;;;4.05;;
28353;SDS011;15603;50.878;8.036;2023-04-24T09:02:10;6.05;;;3.03;;
28353;SDS011;15603;50.878;8.036;2023-04-24T09:04:38;4.10;;;2.92;;
28353;SDS011;15603;50.878;8.036;2023-04-24T09:07:07;6.15;;;2.60;;
28353;SDS011;15603;50.878;8.036;2023-04-24T09:09:37;3.47;;;1.55;;
28353;SDS011;15603;50.878;8.036;2023-04-24T09:12:05;3.47;;;1.70;;
28353;SDS011;15603;50.878;8.036;2023-04-24T09:14:32;2.22;;;0.93;;
28353;SDS011;15603;50.878;8.036;2023-04-24T09:16:59;2.70;;;0.70;;
28353;SDS011;15603;50.878;8.036;2023-04-24T09:19:27;3.05;;;0.88;;
28353;SDS011;15603;50.878;8.036;2023-04-24T09:21:54;0.73;;;0.60;;
28353;SDS011;15603;50.878;8.036;2023-04-24T09:24:21;0.47;;;0.20;;
28353;SDS011;15603;50.878;8.036;2023-04-24T09:26:55;0.75;;;0.30;;
28353;SDS011;15603;50.878;8.036;2023-04-24T09:29:25;0.73;;;0.30;;
28353;SDS011;15603;50.878;8.036;2023-04-24T09:31:52;0.22;;;0.20;;
28353;SDS011;15603;50.878;8.036;2023-04-24T09:34:23;0.52;;;0.30;;
28353;SDS011;15603;50.878;8.036;2023-04-24T09:36:52;2.97;;;0.65;;
28353;SDS011;15603;50.878;8.036;2023-04-24T09:39:20;0.45;;;0.38;;
28353;SDS011;15603;50.878;8.036;2023-04-24T09:41:53;0.52;;;0.13;;
28353;SDS011;15603;50.878;8.036;2023-04-24T09:44:27;0.80;;;0.30;;
28353;SDS011;15603;50.878;8.036;2023-04-24T09:46:57;1.65;;;0.50;;
28353;SDS011;15603;50.878;8.036;2023-04-24T09:49:26;0.40;;;0.20;;
28353;SDS011;15603;50.878;8.036;2023-04-24T09:52:07;0.60;;;0.30;;
28353;SDS011;15603;50.878;8.036;2023-04-24T09:54:37;1.00;;;0.15;;
28353;SDS011;15603;50.878;8.036;2023-04-24T09:57:06;0.85;;;0.30;;
28353;SDS011;15603;50.878;8.036;2023-04-24T09:59:34;0.88;;;0.25;;
28353;SDS011;15603;50.878;8.036;2023-04-24T10:02:03;0.40;;;0.20;;
28353;SDS011;15603;50.878;8.036;2023-04-24T10:04:53;1.35;;;0.10;;
28353;SDS011;15603;50.878;8.036;2023-04-24T10:07:25;0.20;;;0.20;;
28353;SDS011;15603;50.878;8.036;2023-04-24T10:09:52;0.75;;;0.30;;
28353;SDS011;15603;50.878;8.036;2023-04-24T10:12:20;0.47;;;0.30;;
28353;SDS011;15603;50.878;8.036;2023-04-24T10:14:48;4.78;;;0.28;;
28353;SDS011;15603;50.878;8.036;2023-04-24T10:17:16;0.60;;;0.15;;
28353;SDS011;15603;50.878;8.036;2023-04-24T10:19:44;0.73;;;0.20;;
28353;SDS011;15603;50.878;8.036;2023-04-24T10:22:12;0.20;;;0.15;;
28353;SDS011;15603;50.878;8.036;2023-04-24T10:24:42;0.35;;;0.30;;
28353;SDS011;15603;50.878;8.036;2023-04-24T10:27:10;2.70;;;0.35;;
28353;SDS011;15603;50.878;8.036;2023-04-24T10:29:39;1.48;;;0.43;;
28353;SDS011;15603;50.878;8.036;2023-04-24T10:32:07;1.45;;;0.35;;
28353;SDS011;15603;50.878;8.036;2023-04-24T10:34:36;1.83;;;0.63;;
28353;SDS011;15603;50.878;8.036;2023-04-24T10:37:03;0.57;;;0.40;;
28353;SDS011;15603;50.878;8.036;2023-04-24T10:39:30;1.80;;;0.50;;
28353;SDS011;15603;50.878;8.036;2023-04-24T10:42:00;1.48;;;0.30;;
28353;SDS011;15603;50.878;8.036;2023-04-24T10:44:35;1.55;;;0.68;;
28353;SDS011;15603;50.878;8.036;2023-04-24T10:47:03;0.80;;;0.60;;
28353;SDS011;15603;50.878;8.036;2023-04-24T10:49:31;1.40;;;0.70;;
28353;SDS011;15603;50.878;8.036;2023-04-24T10:52:02;0.70;;;0.57;;
28353;SDS011;15603;50.878;8.036;2023-04-24T10:54:36;2.28;;;1.50;;
28353;SDS011;15603;50.878;8.036;2023-04-24T10:59:46;2.17;;;0.90;;
28353;SDS011;15603;50.878;8.036;2023-04-24T11:02:15;1.45;;;0.57;;
28353;SDS011;15603;50.878;8.036;2023-04-24T11:04:43;1.42;;;0.77;;
28353;SDS011;15603;50.878;8.036;2023-04-24T11:07:11;3.60;;;1.38;;
28353;SDS011;15603;50.878;8.036;2023-04-24T11:09:39;2.03;;;0.80;;
28353;SDS011;15603;50.878;8.036;2023-04-24T11:12:10;0.93;;;0.85;;
28353;SDS011;15603;50.878;8.036;2023-04-24T11:17:35;1.88;;;0.98;;
28353;SDS011;15603;50.878;8.036;2023-04-24T11:20:06;1.95;;;1.20;;
28353;SDS011;15603;50.878;8.036;2023-04-24T11:22:53;2.65;;;0.98;;
28353;SDS011;15603;50.878;8.036;2023-04-24T11:25:22;1.65;;;1.08;;
28353;SDS011;15603;50.878;8.036;2023-04-24T11:27:49;2.03;;;1.20;;
28353;SDS011;15603;50.878;8.036;2023-04-24T11:30:29;6.35;;;1.60;;
28353;SDS011;15603;50.878;8.036;2023-04-24T11:33:02;2.78;;;1.67;;
28353;SDS011;15603;50.878;8.036;2023-04-24T11:35:34;4.97;;;1.25;;
28353;SDS011;15603;50.878;8.036;2023-04-24T11:38:04;2.28;;;1.77;;
28353;SDS011;15603;50.878;8.036;2023-04-24T11:40:34;2.83;;;1.55;;
28353;SDS011;15603;50.878;8.036;2023-04-24T11:43:04;4.57;;;1.83;;
28353;SDS011;15603;50.878;8.036;2023-04-24T11:45:33;2.35;;;1.60;;
28353;SDS011;15603;50.878;8.036;2023-04-24T11:48:02;4.93;;;1.98;;
28353;SDS011;15603;50.878;8.036;2023-04-24T11:50:30;5.00;;;1.85;;
28353;SDS011;15603;50.878;8.036;2023-04-24T11:52:57;10.23;;;2.53;;
28353;SDS011;15603;50.878;8.036;2023-04-24T11:55:25;6.80;;;2.30;;
28353;SDS011;15603;50.878;8.036;2023-04-24T11:57:57;11.32;;;2.35;;
28353;SDS011;15603;50.878;8.036;2023-04-24T12:00:26;6.03;;;2.35;;
28353;SDS011;15603;50.878;8.036;2023-04-24T12:03:08;9.05;;;2.78;;
28353;SDS011;15603;50.878;8.036;2023-04-24T12:05:36;5.57;;;2.40;;
28353;SDS011;15603;50.878;8.036;2023-04-24T12:08:04;9.52;;;2.85;;
28353;SDS011;15603;50.878;8.036;2023-04-24T12:10:32;7.05;;;3.42;;
28353;SDS011;15603;50.878;8.036;2023-04-24T12:13:00;8.73;;;2.75;;
28353;SDS011;15603;50.878;8.036;2023-04-24T12:15:27;6.57;;;2.38;;
28353;SDS011;15603;50.878;8.036;2023-04-24T12:17:55;4.80;;;2.72;;
28353;SDS011;15603;50.878;8.036;2023-04-24T12:20:23;5.80;;;2.15;;
28353;SDS011;15603;50.878;8.036;2023-04-24T12:22:56;5.70;;;1.77;;
28353;SDS011;15603;50.878;8.036;2023-04-24T12:25:25;5.68;;;2.70;;
28353;SDS011;15603;50.878;8.036;2023-04-24T12:27:55;5.70;;;1.85;;
28353;SDS011;15603;50.878;8.036;2023-04-24T12:30:41;5.13;;;1.73;;
28353;SDS011;15603;50.878;8.036;2023-04-24T12:33:12;4.90;;;1.70;;
28353;SDS011;15603;50.878;8.036;2023-04-24T12:35:40;6.85;;;1.75;;
28353;SDS011;15603;50.878;8.036;2023-04-24T12:38:15;3.33;;;1.58;;
28353;SDS011;15603;50.878;8.036;2023-04-24T12:40:43;6.10;;;1.35;;
28353;SDS011;15603;50.878;8.036;2023-04-24T12:45:45;7.20;;;1.58;;
28353;SDS011;15603;50.878;8.036;2023-04-24T12:48:12;9.77;;;1.80;;
28353;SDS011;15603;50.878;8.036;2023-04-24T12:50:41;4.70;;;1.90;;
28353;SDS011;15603;50.878;8.036;2023-04-24T12:53:12;8.20;;;1.70;;
28353;SDS011;15603;50.878;8.036;2023-04-24T12:55:39;9.70;;;3.05;;
28353;SDS011;15603;50.878;8.036;2023-04-24T12:58:07;14.32;;;2.30;;
28353;SDS011;15603;50.878;8.036;2023-04-24T13:00:34;8.40;;;2.08;;
28353;SDS011;15603;50.878;8.036;2023-04-24T13:03:01;11.90;;;2.80;;
28353;SDS011;15603;50.878;8.036;2023-04-24T13:05:29;7.05;;;2.33;;
28353;SDS011;15603;50.878;8.036;2023-04-24T13:07:57;7.38;;;2.40;;
28353;SDS011;15603;50.878;8.036;2023-04-24T13:10:24;8.55;;;2.25;;
28353;SDS011;15603;50.878;8.036;2023-04-24T13:12:51;8.73;;;2.85;;
28353;SDS011;15603;50.878;8.036;2023-04-24T13:15:18;7.18;;;2.35;;
28353;SDS011;15603;50.878;8.036;2023-04-24T13:17:46;9.35;;;2.55;;
28353;SDS011;15603;50.878;8.036;2023-04-24T13:20:13;11.50;;;3.40;;
28353;SDS011;15603;50.878;8.036;2023-04-24T13:22:40;11.18;;;2.88;;
28353;SDS011;15603;50.878;8.036;2023-04-24T13:25:07;15.02;;;5.55;;
28353;SDS011;15603;50.878;8.036;2023-04-24T13:27:37;11.10;;;2.28;;
28353;SDS011;15603;50.878;8.036;2023-04-24T13:30:05;15.82;;;3.42;;
28353;SDS011;15603;50.878;8.036;2023-04-24T13:32:33;12.43;;;3.97;;
28353;SDS011;15603;50.878;8.036;2023-04-24T13:35:08;5.82;;;2.30;;
28353;SDS011;15603;50.878;8.036;2023-04-24T13:37:36;4.95;;;2.08;;
28353;SDS011;15603;50.878;8.036;2023-04-24T13:40:03;6.60;;;2.03;;
28353;SDS011;15603;50.878;8.036;2023-04-24T13:42:32;8.07;;;2.05;;
28353;SDS011;15603;50.878;8.036;2023-04-24T13:45:00;7.13;;;2.42;;
28353;SDS011;15603;50.878;8.036;2023-04-24T13:47:40;11.93;;;3.13;;
28353;SDS011;15603;50.878;8.036;2023-04-24T13:50:08;8.88;;;3.28;;
28353;SDS011;15603;50.878;8.036;2023-04-24T13:52:36;7.55;;;2.95;;
28353;SDS011;15603;50.878;8.036;2023-04-24T13:55:03;8.70;;;3.30;;
28353;SDS011;15603;50.878;8.036;2023-04-24T13:57:31;8.85;;;3.95;;
28353;SDS011;15603;50.878;8.036;2023-04-24T13:59:58;9.18;;;3.08;;
28353;SDS011;15603;50.878;8.036;2023-04-24T14:02:32;6.28;;;2.70;;
28353;SDS011;15603;50.878;8.036;2023-04-24T14:05:00;11.75;;;3.63;;
28353;SDS011;15603;50.878;8.036;2023-04-24T14:07:27;8.50;;;1.90;;
28353;SDS011;15603;50.878;8.036;2023-04-24T14:09:54;11.43;;;2.55;;
28353;SDS011;15603;50.878;8.036;2023-04-24T14:12:22;5.88;;;2.10;;
28353;SDS011;15603;50.878;8.036;2023-04-24T14:14:49;3.40;;;1.67;;
28353;SDS011;15603;50.878;8.036;2023-04-24T14:17:16;3.22;;;1.63;;
28353;SDS011;15603;50.878;8.036;2023-04-24T14:19:43;7.80;;;2.22;;
28353;SDS011;15603;50.878;8.036;2023-04-24T14:22:10;9.70;;;2.33;;
28353;SDS011;15603;50.878;8.036;2023-04-24T14:24:37;6.35;;;2.78;;
28353;SDS011;15603;50.878;8.036;2023-04-24T14:27:04;5.20;;;2.40;;
28353;SDS011;15603;50.878;8.036;2023-04-24T14:29:31;7.72;;;3.00;;
28353;SDS011;15603;50.878;8.036;2023-04-24T14:32:01;9.45;;;3.05;;
28353;SDS011;15603;50.878;8.036;2023-04-24T14:34:28;8.73;;;2.67;;
28353;SDS011;15603;50.878;8.036;2023-04-24T14:36:55;6.88;;;3.08;;
28353;SDS011;15603;50.878;8.036;2023-04-24T14:39:22;10.77;;;3.10;;
28353;SDS011;15603;50.878;8.036;2023-04-24T14:41:49;7.53;;;3.15;;
28353;SDS011;15603;50.878;8.036;2023-04-24T14:44:16;8.05;;;3.50;;
28353;SDS011;15603;50.878;8.036;2023-04-24T14:46:43;13.70;;;3.47;;
28353;SDS011;15603;50.878;8.036;2023-04-24T14:49:10;13.10;;;3.85;;
28353;SDS011;15603;50.878;8.036;2023-04-24T14:51:39;13.38;;;4.38;;
28353;SDS011;15603;50.878;8.036;2023-04-24T14:54:07;16.52;;;3.80;;
28353;SDS011;15603;50.878;8.036;2023-04-24T14:56:34;14.05;;;3.75;;
28353;SDS011;15603;50.878;8.036;2023-04-24T14:59:02;16.45;;;4.20;;
28353;SDS011;15603;50.878;8.036;2023-04-24T15:01:29;14.75;;;4.63;;
28353;SDS011;15603;50.878;8.036;2023-04-24T15:03:56;16.00;;;4.40;;